Kugler, Minnesota
Current Conditions -  °F | °C
As of 1:15 PM on Friday 28 Nov 2014 (Local Time) from KCQM Reporting Station
Light Snow Light Snow  
Wind Chill: -9°   Ceiling: 1600
Heat Index: -9°   Visibility: 10mi
Dew Point: -13°   Wind: 0mph
Humidity: 73%   Direction: NA
Pressure: 29.89"   Gusts: NA
Location:  47.7992°N, 92.3042°W
Report Text: KCQM 281915Z AUTO 00000KT 10SM -SN OVC016 M09/M13 A2989 RMK AO2
Loading
Personal Weather Stations






























Interactive Weather Map New forecast layout! Learn more

10-Day Weather Forecast

Advertisements
Track Severe Weather on mobile